GIF weather

Winter Haven Regional Airport - Gilbert Field
Winter Haven, Florida, United States

Public forecast

Using degrees Fahrenheit for public forecast. Weather courtesy of forecast.io.

Current aviation weather report (METAR) for Winter Haven Regional Airport - Gilbert Field

Retrieved 2020/04/10 02:53 UTC (51 minutes ago):

KGIF 100253Z AUTO 24006KT 10SM CLR 24/22 A2985 RMK AO2 SLP107 T02440217 51012

Closest aviation forecast (TAF) to Winter Haven Regional Airport - Gilbert Field

Closest forecast is Lakeland Linder International Airport, 14.7 nm (27.3 km) WSW. Retrieved 2020-04-10 00:30 UTC (3 hours ago):

TAF KLAL 092329Z 1000/1024 26008KT P6SM SCT025 SCT250 TEMPO 1002/1006 BKN025 FM100600 27008KT P6SM SCT015 BKN025 TEMPO 1009/1013 SCT007 BKN015 FM101300 32012KT P6SM VCSH SCT015 BKN025 FM102100 36012KT P6SM SCT025 BKN050 AMD NOT SKED 1002/1011